METAR Data

Data at: 1146 UTC 21 Apr 2021

METAR for:KACK (Nantucket Mem Arpt, MA, US)
Text:KACK 211053Z 17011KT 10SM CLR 11/09 A2989 RMK AO2 SLP120 T01110094
Temperature: 11.1°C ( 52°F)
Dewpoint: 9.4°C ( 49°F) [RH = 89%]
Pressure (altimeter):29.89 inches Hg (1012.3 mb) [Sea level pressure: 1012.0 mb]
Winds:from the S (170 degrees) at 13 MPH (11 knots; 5.7 m/s)
Visibility:10 or more sm (16+ km)
Ceiling:at least 12,000 feet AGL
Clouds:sky clear below 12,000 feet AGL